createdAt,value
2023-02-11T00:00:40.578Z,8.32
2023-02-11T00:03:08.312Z,8.22
2023-02-11T00:05:36.001Z,8.26
2023-02-11T00:08:03.662Z,8.25
2023-02-11T00:10:31.503Z,8.25
2023-02-11T00:13:00.565Z,8.50
2023-02-11T00:15:28.269Z,8.30
2023-02-11T00:17:55.948Z,8.25
2023-02-11T00:20:23.649Z,8.51
2023-02-11T00:22:51.376Z,8.60
2023-02-11T00:25:19.085Z,8.23
2023-02-11T00:27:46.766Z,8.53
2023-02-11T00:30:16.494Z,8.29
2023-02-11T00:32:44.192Z,7.96
2023-02-11T00:35:11.873Z,7.97
2023-02-11T00:37:39.601Z,7.92
2023-02-11T00:40:08.265Z,8.70
2023-02-11T00:42:37.493Z,8.48
2023-02-11T00:45:05.858Z,8.42
2023-02-11T00:47:34.875Z,8.35
2023-02-11T00:50:04.623Z,8.38
2023-02-11T00:52:32.490Z,8.55
2023-02-11T00:55:00.154Z,8.74
2023-02-11T00:57:27.905Z,8.74
2023-02-11T00:59:56.198Z,8.69
2023-02-11T01:02:23.894Z,8.47
2023-02-11T01:04:53.069Z,8.79
2023-02-11T01:07:20.768Z,8.88
2023-02-11T01:09:48.441Z,8.22
2023-02-11T01:12:16.267Z,8.43
2023-02-11T01:14:44.024Z,8.24
2023-02-11T01:17:11.903Z,8.31
2023-02-11T01:19:39.808Z,8.60
2023-02-11T01:22:08.870Z,8.45
2023-02-11T01:24:36.631Z,8.55
2023-02-11T01:27:04.480Z,8.42
2023-02-11T01:29:32.160Z,8.65
2023-02-11T01:32:01.291Z,8.54
2023-02-11T01:34:29.438Z,8.92
2023-02-11T01:36:59.823Z,8.91
2023-02-11T01:39:29.141Z,8.84
2023-02-11T01:41:56.878Z,8.65
2023-02-11T01:44:27.594Z,8.50
2023-02-11T01:46:56.380Z,8.79
2023-02-11T01:49:27.744Z,8.51
2023-02-11T01:52:00.001Z,8.54
2023-02-11T01:54:51.002Z,8.41
2023-02-11T01:57:28.888Z,8.51
2023-02-11T02:00:06.320Z,8.79
2023-02-11T02:02:38.360Z,8.39
2023-02-11T02:05:15.416Z,8.51
2023-02-11T02:07:50.746Z,8.72
2023-02-11T02:10:24.253Z,8.87
2023-02-11T02:12:52.035Z,8.75
2023-02-11T02:15:26.230Z,8.64
2023-02-11T02:18:00.158Z,8.36
2023-02-11T02:21:00.263Z,8.76
2023-02-11T02:23:36.768Z,8.72
2023-02-11T02:26:36.618Z,8.67
2023-02-11T02:29:32.298Z,8.56
2023-02-11T02:32:23.390Z,8.50
2023-02-11T02:34:55.136Z,8.73
2023-02-11T02:37:29.543Z,8.79
2023-02-11T02:40:00.745Z,8.87
2023-02-11T02:42:29.144Z,8.80
2023-02-11T02:44:57.637Z,8.40
2023-02-11T02:47:26.698Z,8.75
2023-02-11T02:49:54.422Z,8.92
2023-02-11T02:52:34.668Z,8.83
2023-02-11T02:55:17.120Z,8.99
2023-02-11T02:58:02.818Z,8.73
2023-02-11T03:00:35.814Z,8.94
2023-02-11T03:03:17.752Z,8.88
2023-02-11T03:05:54.082Z,8.53
2023-02-11T03:08:29.895Z,8.93
2023-02-11T03:10:59.093Z,8.73
2023-02-11T03:13:33.437Z,8.66
2023-02-11T03:16:08.299Z,9.12
2023-02-11T03:18:40.758Z,9.07
2023-02-11T03:21:10.982Z,9.23
2023-02-11T03:23:42.762Z,9.17
2023-02-11T03:26:15.546Z,8.99
2023-02-11T03:28:50.339Z,9.35
2023-02-11T03:31:26.913Z,9.34
2023-02-11T03:34:02.294Z,9.55
2023-02-11T03:36:36.794Z,9.16
2023-02-11T03:39:06.711Z,9.09
2023-02-11T03:41:37.295Z,9.48
2023-02-11T03:44:07.105Z,9.21
2023-02-11T03:46:38.760Z,9.24
2023-02-11T03:49:13.396Z,9.35
2023-02-11T03:51:42.012Z,9.06
2023-02-11T03:54:15.171Z,9.12
2023-02-11T03:56:49.503Z,9.46
2023-02-11T03:59:17.154Z,9.19
2023-02-11T04:01:44.933Z,9.58
2023-02-11T04:04:14.389Z,9.52
2023-02-11T04:06:42.205Z,9.21
2023-02-11T04:09:10.352Z,9.60
2023-02-11T04:11:38.048Z,9.68
2023-02-11T04:14:05.809Z,9.41
2023-02-11T04:16:33.670Z,9.46
2023-02-11T04:19:01.690Z,9.40
2023-02-11T04:21:30.752Z,9.55
2023-02-11T04:23:58.491Z,9.26
2023-02-11T04:26:26.286Z,9.46
2023-02-11T04:28:53.964Z,9.75
2023-02-11T04:31:21.692Z,9.60
2023-02-11T04:33:49.442Z,9.79
2023-02-11T04:36:17.143Z,9.76
2023-02-11T04:38:46.204Z,9.25
2023-02-11T04:41:13.891Z,9.50
2023-02-11T04:43:41.582Z,9.48
2023-02-11T04:46:09.312Z,9.43
2023-02-11T04:48:37.088Z,9.69
2023-02-11T04:51:05.147Z,9.33
2023-02-11T04:53:32.946Z,9.62
2023-02-11T04:56:02.068Z,9.38
2023-02-11T04:58:29.709Z,9.65
2023-02-11T05:00:57.457Z,9.45
2023-02-11T05:03:25.147Z,9.54
2023-02-11T05:05:53.163Z,9.35
2023-02-11T05:08:21.011Z,9.66
2023-02-11T05:10:49.047Z,9.77
2023-02-11T05:13:18.094Z,9.44
2023-02-11T05:15:45.753Z,9.77
2023-02-11T05:18:14.878Z,9.30
2023-02-11T05:20:42.972Z,9.70
2023-02-11T05:23:10.858Z,9.46
2023-02-11T05:25:38.858Z,9.88
2023-02-11T05:28:07.099Z,9.99
2023-02-11T05:30:36.190Z,9.83
2023-02-11T05:33:03.883Z,9.56
2023-02-11T05:35:31.576Z,9.58
2023-02-11T05:37:59.294Z,9.63
2023-02-11T05:40:27.024Z,9.84
2023-02-11T05:42:54.758Z,9.82
2023-02-11T05:45:22.538Z,9.54
2023-02-11T05:47:51.569Z,9.65
2023-02-11T05:50:19.796Z,9.28
2023-02-11T05:52:47.539Z,9.86
2023-02-11T05:55:15.313Z,9.59
2023-02-11T05:57:42.991Z,9.73
2023-02-11T06:00:12.402Z,9.77
2023-02-11T06:02:40.222Z,9.26
2023-02-11T06:05:10.149Z,9.52
2023-02-11T06:07:37.884Z,9.26
2023-02-11T06:10:06.465Z,9.34
2023-02-11T06:12:34.323Z,9.44
2023-02-11T06:15:02.131Z,9.46
2023-02-11T06:17:31.703Z,9.53
2023-02-11T06:19:59.408Z,9.59
2023-02-11T06:22:28.626Z,9.73
2023-02-11T06:25:01.679Z,9.57
2023-02-11T06:27:30.117Z,9.47
2023-02-11T06:29:57.972Z,9.52
2023-02-11T06:32:43.011Z,9.45
2023-02-11T06:35:12.575Z,9.55
2023-02-11T06:37:42.407Z,9.10
2023-02-11T06:40:12.056Z,9.71
2023-02-11T06:42:39.841Z,9.86
2023-02-11T06:45:09.323Z,9.40
2023-02-11T06:47:37.117Z,9.50
2023-02-11T06:50:05.858Z,10.01
2023-02-11T06:52:34.056Z,10.05
2023-02-11T06:55:03.099Z,9.71
2023-02-11T06:57:31.749Z,9.71
2023-02-11T06:59:59.462Z,9.88
2023-02-11T07:02:27.377Z,9.73
2023-02-11T07:04:55.145Z,9.90
2023-02-11T07:07:22.908Z,9.64
2023-02-11T07:09:50.763Z,10.11
2023-02-11T07:12:19.892Z,10.01
2023-02-11T07:14:47.573Z,9.98
2023-02-11T07:17:15.406Z,9.93
2023-02-11T07:19:43.363Z,10.16
2023-02-11T07:22:11.099Z,10.19
2023-02-11T07:24:38.744Z,10.38
2023-02-11T07:27:06.670Z,10.02
2023-02-11T07:29:35.826Z,10.11
2023-02-11T07:32:03.586Z,10.16
2023-02-11T07:34:31.388Z,10.28
2023-02-11T07:36:59.140Z,10.30
2023-02-11T07:39:27.483Z,9.98
2023-02-11T07:41:55.644Z,10.38
2023-02-11T07:44:24.603Z,10.50
2023-02-11T07:46:53.930Z,10.27
2023-02-11T07:49:21.690Z,10.13
2023-02-11T07:51:51.182Z,10.37
2023-02-11T07:54:19.248Z,10.42
2023-02-11T07:56:47.000Z,10.10
2023-02-11T07:59:14.791Z,10.29
2023-02-11T08:01:42.536Z,10.71
2023-02-11T08:04:11.579Z,10.45
2023-02-11T08:06:43.213Z,10.48
2023-02-11T08:09:14.906Z,10.36
2023-02-11T08:11:42.621Z,10.40
2023-02-11T08:14:11.026Z,10.54
2023-02-11T08:16:39.916Z,10.24
2023-02-11T08:19:09.494Z,10.46
2023-02-11T08:21:39.314Z,10.45
2023-02-11T08:24:08.226Z,10.41
2023-02-11T08:26:36.177Z,10.44
2023-02-11T08:29:08.602Z,10.53
2023-02-11T08:31:38.824Z,10.19
2023-02-11T08:34:07.176Z,10.07
2023-02-11T08:36:36.987Z,10.35
2023-02-11T08:39:18.740Z,10.42
2023-02-11T08:41:48.839Z,10.43
2023-02-11T08:44:16.748Z,10.52
2023-02-11T08:46:44.477Z,10.72
2023-02-11T08:49:12.316Z,10.59
2023-02-11T08:51:40.027Z,10.51
2023-02-11T08:54:10.098Z,10.60
2023-02-11T08:56:38.995Z,10.56
2023-02-11T08:59:07.081Z,10.65
2023-02-11T09:01:34.984Z,10.41
2023-02-11T09:04:02.838Z,10.24
2023-02-11T09:06:31.106Z,10.37
2023-02-11T09:08:59.512Z,10.49
2023-02-11T09:11:31.496Z,10.69
2023-02-11T09:13:59.462Z,10.23
2023-02-11T09:16:30.020Z,10.37
2023-02-11T09:18:58.470Z,10.62
2023-02-11T09:21:26.268Z,10.84
2023-02-11T09:23:54.055Z,10.50
2023-02-11T09:26:24.519Z,10.83
2023-02-11T09:28:54.232Z,10.36
2023-02-11T09:31:24.584Z,10.80
2023-02-11T09:33:55.697Z,10.81
2023-02-11T09:36:26.136Z,10.57
2023-02-11T09:38:54.646Z,10.72
2023-02-11T09:41:36.723Z,10.49
2023-02-11T09:44:08.933Z,10.83
2023-02-11T09:46:38.686Z,10.20
2023-02-11T09:49:08.480Z,10.89
2023-02-11T09:51:41.491Z,10.96
2023-02-11T09:54:17.162Z,10.69
2023-02-11T09:56:44.975Z,10.78
2023-02-11T09:59:15.744Z,10.80
2023-02-11T10:01:49.424Z,10.85
2023-02-11T10:04:30.081Z,10.64
2023-02-11T10:07:03.325Z,10.77
2023-02-11T10:09:46.546Z,10.69
2023-02-11T10:12:36.165Z,11.24
2023-02-11T10:15:19.838Z,11.07
2023-02-11T10:18:03.014Z,11.08
2023-02-11T10:20:35.649Z,10.97
2023-02-11T10:23:11.739Z,11.20
2023-02-11T10:25:44.301Z,10.87
2023-02-11T10:28:15.719Z,10.89
2023-02-11T10:30:51.007Z,10.93
2023-02-11T10:33:26.613Z,10.97
2023-02-11T10:35:54.459Z,10.52
2023-02-11T10:38:22.649Z,11.08
2023-02-11T10:40:50.880Z,10.57
2023-02-11T10:43:22.379Z,10.88
2023-02-11T10:45:53.493Z,10.80
2023-02-11T10:48:42.917Z,10.94
2023-02-11T10:51:20.434Z,10.98
2023-02-11T10:53:50.376Z,11.07
2023-02-11T10:56:25.213Z,11.13
2023-02-11T10:58:59.086Z,11.10
2023-02-11T11:01:42.080Z,10.94
2023-02-11T11:04:35.559Z,10.57
2023-02-11T11:07:19.724Z,11.30
2023-02-11T11:09:53.177Z,11.35
2023-02-11T11:12:34.730Z,11.15
2023-02-11T11:15:13.551Z,10.95
2023-02-11T11:17:42.723Z,11.10
2023-02-11T11:20:28.505Z,11.20
2023-02-11T11:23:16.614Z,11.06
2023-02-11T11:25:46.408Z,10.86
2023-02-11T11:28:25.252Z,10.87
2023-02-11T11:30:55.012Z,11.31
2023-02-11T11:33:27.358Z,11.03
2023-02-11T11:36:02.559Z,10.88
2023-02-11T11:38:31.936Z,11.29
2023-02-11T11:41:23.876Z,10.89
2023-02-11T11:43:57.486Z,11.15
2023-02-11T11:46:27.817Z,10.80
2023-02-11T11:49:16.040Z,10.96
2023-02-11T11:51:50.850Z,10.95
2023-02-11T11:54:21.448Z,11.27
2023-02-11T11:56:55.822Z,11.30
2023-02-11T11:59:23.855Z,11.15
2023-02-11T12:02:19.363Z,11.38
2023-02-11T12:05:05.772Z,11.43
2023-02-11T12:07:45.247Z,11.57
2023-02-11T12:10:29.037Z,11.68
2023-02-11T12:13:05.112Z,11.33
2023-02-11T12:15:37.567Z,11.19
2023-02-11T12:18:28.566Z,11.26
2023-02-11T12:21:18.866Z,11.50
2023-02-11T12:24:03.385Z,11.73
2023-02-11T12:26:41.009Z,11.47
2023-02-11T12:29:20.782Z,11.70
2023-02-11T12:32:07.151Z,11.39
2023-02-11T12:35:12.213Z,11.77
2023-02-11T12:37:57.886Z,11.79
2023-02-11T12:40:43.685Z,11.66
2023-02-11T12:43:21.462Z,11.64
2023-02-11T12:46:03.227Z,11.49
2023-02-11T12:48:56.688Z,11.05
2023-02-11T12:51:38.988Z,11.44
2023-02-11T12:54:20.892Z,11.48
2023-02-11T12:56:55.653Z,11.63
2023-02-11T12:59:39.498Z,11.52
2023-02-11T13:02:19.995Z,11.29
2023-02-11T13:04:53.213Z,11.28
2023-02-11T13:07:27.009Z,11.50
2023-02-11T13:10:02.099Z,11.31
2023-02-11T13:12:50.999Z,11.34
2023-02-11T13:15:19.275Z,11.43
2023-02-11T13:17:55.978Z,11.52
2023-02-11T13:20:36.168Z,11.50
2023-02-11T13:23:12.772Z,11.33
2023-02-11T13:25:47.438Z,11.72
2023-02-11T13:28:41.439Z,11.57
2023-02-11T13:31:12.704Z,11.75
2023-02-11T13:33:43.062Z,11.49
2023-02-11T13:36:20.053Z,11.67
2023-02-11T13:38:56.898Z,11.72
2023-02-11T13:41:30.011Z,11.95
2023-02-11T13:44:00.646Z,11.81
2023-02-11T13:46:31.521Z,11.65
2023-02-11T13:48:59.527Z,11.58
2023-02-11T13:51:38.655Z,11.59
2023-02-11T13:54:08.740Z,11.73
2023-02-11T13:56:40.574Z,11.57
2023-02-11T13:59:46.862Z,11.70
2023-02-11T14:02:42.699Z,11.74
2023-02-11T14:05:44.503Z,11.52
2023-02-11T14:08:41.499Z,11.90
2023-02-11T14:11:31.399Z,12.05
2023-02-11T14:14:31.716Z,11.99
2023-02-11T14:17:31.077Z,11.90
2023-02-11T14:20:00.399Z,11.81
2023-02-11T14:22:31.702Z,11.95
2023-02-11T14:25:01.789Z,12.01
2023-02-11T14:27:38.567Z,12.30
2023-02-11T14:30:31.414Z,11.76
2023-02-11T14:33:26.222Z,11.94
2023-02-11T14:36:03.708Z,12.40
2023-02-11T14:38:44.972Z,11.69
2023-02-11T14:41:22.840Z,11.62
2023-02-11T14:43:54.340Z,11.65
2023-02-11T14:46:25.543Z,11.91
2023-02-11T14:48:56.367Z,11.76
2023-02-11T14:51:26.766Z,11.60
2023-02-11T14:54:00.680Z,11.47
2023-02-11T14:56:31.044Z,11.47
2023-02-11T14:58:59.606Z,11.86
2023-02-11T15:01:31.915Z,11.66
2023-02-11T15:04:01.373Z,11.72
2023-02-11T15:06:32.733Z,11.45
2023-02-11T15:09:03.587Z,11.49
2023-02-11T15:11:35.016Z,11.63
2023-02-11T15:14:09.785Z,11.68
2023-02-11T15:16:43.892Z,11.79
2023-02-11T15:19:21.558Z,11.57
2023-02-11T15:21:50.662Z,11.70
2023-02-11T15:24:27.292Z,11.13
2023-02-11T15:26:59.536Z,10.89
2023-02-11T15:29:35.551Z,11.22
2023-02-11T15:32:13.530Z,10.31
2023-02-11T15:34:41.808Z,11.15
2023-02-11T15:37:14.382Z,11.02
2023-02-11T15:39:43.124Z,11.21
2023-02-11T15:42:21.396Z,10.72
2023-02-11T15:44:56.492Z,10.76
2023-02-11T15:47:25.992Z,11.10
2023-02-11T15:49:53.731Z,11.10
2023-02-11T15:52:27.472Z,10.87
2023-02-11T15:54:56.982Z,11.22
2023-02-11T15:57:24.779Z,11.02
2023-02-11T15:59:56.280Z,11.27
2023-02-11T16:02:32.053Z,11.46
2023-02-11T16:05:08.686Z,11.03
2023-02-11T16:07:42.483Z,10.94
2023-02-11T16:10:26.447Z,10.95
2023-02-11T16:12:57.883Z,10.84
2023-02-11T16:15:44.084Z,11.14
2023-02-11T16:18:36.835Z,10.84
2023-02-11T16:21:07.714Z,11.11
2023-02-11T16:23:38.822Z,11.21
2023-02-11T16:26:12.375Z,11.43
2023-02-11T16:28:41.064Z,11.50
2023-02-11T16:31:09.687Z,11.34
2023-02-11T16:33:39.000Z,11.09
2023-02-11T16:36:13.337Z,11.12
2023-02-11T16:38:41.332Z,11.23
2023-02-11T16:41:11.768Z,11.49
2023-02-11T16:43:40.001Z,10.93
2023-02-11T16:46:09.329Z,11.18
2023-02-11T16:48:39.056Z,11.17
2023-02-11T16:51:09.205Z,11.14
2023-02-11T16:53:37.019Z,11.17
2023-02-11T16:56:05.326Z,11.14
2023-02-11T16:58:33.737Z,11.33
2023-02-11T17:01:01.885Z,11.06
2023-02-11T17:03:30.245Z,11.27
2023-02-11T17:06:02.882Z,11.18
2023-02-11T17:08:30.854Z,11.21
2023-02-11T17:10:58.698Z,10.65
2023-02-11T17:13:26.693Z,10.78
2023-02-11T17:15:55.150Z,10.70
2023-02-11T17:18:23.062Z,10.82
2023-02-11T17:20:50.964Z,10.93
2023-02-11T17:23:20.052Z,11.19
2023-02-11T17:25:48.281Z,11.16
2023-02-11T17:28:16.082Z,11.27
2023-02-11T17:30:44.178Z,11.12
2023-02-11T17:33:11.920Z,11.13
2023-02-11T17:35:41.572Z,11.16
2023-02-11T17:38:09.384Z,11.37
2023-02-11T17:40:38.606Z,11.17
2023-02-11T17:43:06.552Z,11.36
2023-02-11T17:45:34.469Z,11.45
2023-02-11T17:48:02.423Z,11.10
2023-02-11T17:50:30.347Z,11.03
2023-02-11T17:52:58.340Z,11.43
2023-02-11T17:55:26.140Z,11.22
2023-02-11T17:57:55.471Z,11.09
2023-02-11T18:00:23.664Z,11.33
2023-02-11T18:02:51.582Z,11.45
2023-02-11T18:05:19.678Z,11.22
2023-02-11T18:07:48.444Z,11.17
2023-02-11T18:10:16.318Z,11.23
2023-02-11T18:12:44.309Z,11.01
2023-02-11T18:15:13.890Z,11.24
2023-02-11T18:17:41.689Z,11.13
2023-02-11T18:20:10.422Z,10.98
2023-02-11T18:22:40.897Z,11.21
2023-02-11T18:25:09.431Z,11.06
2023-02-11T18:27:37.306Z,11.35
2023-02-11T18:30:06.211Z,11.28
2023-02-11T18:32:35.469Z,11.31
2023-02-11T18:35:03.520Z,11.17
2023-02-11T18:37:31.282Z,11.20
2023-02-11T18:39:59.480Z,11.17
2023-02-11T18:42:28.033Z,11.22
2023-02-11T18:44:56.006Z,10.74
2023-02-11T18:47:23.859Z,11.18
2023-02-11T18:49:53.044Z,10.94
2023-02-11T18:52:20.803Z,11.04
2023-02-11T18:54:51.366Z,10.94
2023-02-11T18:57:19.142Z,11.02
2023-02-11T18:59:46.898Z,11.38
2023-02-11T19:02:14.699Z,11.30
2023-02-11T19:04:42.416Z,11.20
2023-02-11T19:07:11.767Z,11.27
2023-02-11T19:09:39.520Z,11.34
2023-02-11T19:12:08.687Z,11.39
2023-02-11T19:14:38.617Z,11.34
2023-02-11T19:17:10.810Z,11.25
2023-02-11T19:19:38.630Z,11.64
2023-02-11T19:22:10.246Z,11.80
2023-02-11T19:24:40.059Z,11.86
2023-02-11T19:27:07.882Z,11.66
2023-02-11T19:29:35.627Z,11.38
2023-02-11T19:32:03.851Z,11.52
2023-02-11T19:34:31.618Z,11.29
2023-02-11T19:37:01.597Z,11.45
2023-02-11T19:39:29.449Z,11.41
2023-02-11T19:41:58.587Z,11.48
2023-02-11T19:44:26.542Z,11.45
2023-02-11T19:46:54.799Z,11.35
2023-02-11T19:49:25.847Z,11.59
2023-02-11T19:51:55.380Z,11.63
2023-02-11T19:54:23.362Z,11.15
2023-02-11T19:56:51.070Z,11.31
2023-02-11T19:59:21.028Z,10.91
2023-02-11T20:01:49.146Z,11.05
2023-02-11T20:04:17.898Z,10.73
2023-02-11T20:06:48.091Z,11.23
2023-02-11T20:09:17.626Z,11.42
2023-02-11T20:11:45.467Z,11.32
2023-02-11T20:14:14.812Z,11.36
2023-02-11T20:16:49.081Z,11.35
2023-02-11T20:19:19.361Z,11.20
2023-02-11T20:21:48.728Z,11.37
2023-02-11T20:24:16.921Z,11.45
2023-02-11T20:26:46.824Z,11.70
2023-02-11T20:29:15.375Z,11.73
2023-02-11T20:31:45.028Z,11.75
2023-02-11T20:34:12.993Z,11.75
2023-02-11T20:36:41.062Z,11.36
2023-02-11T20:39:09.541Z,11.39
2023-02-11T20:41:39.848Z,11.48
2023-02-11T20:44:09.723Z,11.45
2023-02-11T20:46:40.032Z,11.87
2023-02-11T20:49:10.799Z,11.32
2023-02-11T20:51:38.789Z,11.73
2023-02-11T20:54:07.158Z,11.86
2023-02-11T20:56:37.616Z,11.82
2023-02-11T20:59:06.670Z,11.55
2023-02-11T21:01:36.215Z,11.80
2023-02-11T21:04:05.980Z,11.31
2023-02-11T21:06:37.676Z,11.60
2023-02-11T21:09:07.203Z,11.20
2023-02-11T21:11:34.976Z,11.07
2023-02-11T21:14:02.970Z,11.28
2023-02-11T21:16:30.812Z,11.09
2023-02-11T21:18:58.664Z,11.26
2023-02-11T21:21:36.198Z,11.34
2023-02-11T21:24:05.705Z,11.48
2023-02-11T21:26:35.395Z,11.42
2023-02-11T21:29:03.638Z,11.67
2023-02-11T21:31:33.506Z,11.62
2023-02-11T21:34:01.493Z,11.56
2023-02-11T21:36:30.582Z,11.43
2023-02-11T21:38:58.809Z,11.06
2023-02-11T21:41:28.139Z,11.33
2023-02-11T21:43:56.052Z,11.34
2023-02-11T21:46:24.118Z,11.13
2023-02-11T21:48:52.279Z,11.20
2023-02-11T21:51:21.931Z,10.99
2023-02-11T21:53:53.700Z,11.23
2023-02-11T21:56:21.520Z,11.05
2023-02-11T21:58:53.459Z,11.19
2023-02-11T22:01:23.610Z,11.00
2023-02-11T22:03:51.655Z,11.34
2023-02-11T22:06:22.239Z,11.07
2023-02-11T22:08:50.340Z,11.19
2023-02-11T22:11:18.482Z,10.89
2023-02-11T22:13:46.860Z,10.75
2023-02-11T22:16:18.101Z,11.14
2023-02-11T22:18:46.519Z,11.18
2023-02-11T22:21:16.944Z,10.99
2023-02-11T22:23:45.584Z,10.92
2023-02-11T22:26:16.792Z,11.35
2023-02-11T22:28:45.134Z,11.14
2023-02-11T22:31:15.694Z,10.76
2023-02-11T22:33:44.005Z,10.74
2023-02-11T22:36:16.536Z,10.84
2023-02-11T22:38:47.310Z,11.34
2023-02-11T22:41:16.209Z,11.57
2023-02-11T22:43:45.055Z,11.44
2023-02-11T22:46:16.256Z,11.00
2023-02-11T22:48:44.513Z,11.30
2023-02-11T22:51:14.132Z,10.99
2023-02-11T22:53:42.165Z,10.89
2023-02-11T22:56:15.211Z,10.76
2023-02-11T22:58:43.887Z,11.08
2023-02-11T23:01:12.602Z,10.96
2023-02-11T23:03:42.228Z,10.68
2023-02-11T23:06:10.504Z,11.11
2023-02-11T23:08:40.599Z,10.56
2023-02-11T23:11:11.401Z,11.07
2023-02-11T23:13:41.410Z,10.82
2023-02-11T23:16:11.060Z,10.83
2023-02-11T23:18:43.869Z,11.05
2023-02-11T23:21:15.821Z,10.53
2023-02-11T23:23:43.955Z,11.17
2023-02-11T23:26:12.595Z,11.10
2023-02-11T23:28:40.936Z,11.35
2023-02-11T23:31:17.194Z,11.32
2023-02-11T23:33:47.459Z,11.35
2023-02-11T23:36:16.965Z,11.57
2023-02-11T23:38:44.948Z,11.20
2023-02-11T23:41:13.127Z,11.39
2023-02-11T23:43:41.174Z,11.42
2023-02-11T23:46:09.656Z,11.32
2023-02-11T23:48:37.860Z,11.27
2023-02-11T23:51:09.565Z,10.89
2023-02-11T23:53:37.695Z,11.27
2023-02-11T23:56:09.092Z,10.70
2023-02-11T23:58:37.251Z,11.22
